{site.name} Logo
Login | Create Account

Middleburg, FL Single Family Real Estate Listings

286 Total Real Estate Listings * Click on table heading to sort
Date Posted Property Type Property Style Address Price Living Area Lot Size Price/Sq Ft.
2015-08-30 Single Family Traditional 3013 Morning Sun Dr Middleburg, FL 32068 $225,000 2,263 sq. ft. $99
2015-08-30 Single Family Ranch 1121 Wetland Ridge Cir Middleburg, FL 32068 $264,950 2,500 sq. ft. $106
2015-08-30 Single Family 4365 Hawk Haven Rd Middleburg, FL 32068 $300,000 245,678 sq. ft.
2015-08-29 Single Family Traditional 2940 Sisters Ct Middleburg, FL 32068 $479,900 4,781 sq. ft. $100
2015-08-29 Single Family 2007-2009 Teal Ln Middleburg, FL 32068 $159,900 2,280 sq. ft. 139,392 sq. ft. $70
2015-08-29 Single Family Traditional 1842 Cherry Creek Way Middleburg, FL 32068 $171,585 1,539 sq. ft. $111
2015-08-28 Single Family Patio Home 3816 Green View Ter Ter Middleburg, FL 32068 $152,900 1,735 sq. ft. $88
2015-08-27 Single Family 3930 Trail Ridge Rd Middleburg, FL 32068 $299,900 3,063 sq. ft. $98
2015-08-27 Single Family 1551 Sharon Ln Middleburg, FL 32068 $79,900 1,296 sq. ft. $62
2015-08-26 Single Family Ranch 3817 Forest Dr Middleburg, FL 32068 $350,000 1,232 sq. ft. $284
2015-08-26 Single Family 5134 Buckhead Rd Middleburg, FL 32068 $59,000 108,900 sq. ft.
2015-08-25 Single Family Ranch 2831 Seminole Village Dr Middleburg, FL 32068 $239,900 3,212 sq. ft. $75
2015-08-24 Single Family Ranch 1849 Killarn Cir Middleburg, FL 32068 $144,500 1,690 sq. ft. $86
2015-08-23 Single Family 2090 Farm Way Middleburg, FL 32068 $114,900 1,496 sq. ft. 9,540 sq. ft. $77
2015-08-22 Single Family 2026 Creekmont Dr Middleburg, FL 32068 $230,000 2,900 sq. ft. $79
2015-08-22 Single Family Contemporary; Traditional 2775 Ravines Rd Middleburg, FL 32068 $265,000 2,292 sq. ft. $116
2015-08-22 Single Family Traditional 1992 Green Meadows Dr Middleburg, FL 32068 $47,000 2,052 sq. ft. 43,996 sq. ft. $23
2015-08-21 Single Family Traditional 1781 Redwood Ln Middleburg, FL 32068 $220,000 2,340 sq. ft. $94
2015-08-21 Single Family Ranch 2576 Quail Roost Rd Middleburg, FL 32068 $279,900 1,800 sq. ft. 32,234 sq. ft. $156
2015-08-21 Single Family 1024 Lemon Drop Ln Middleburg, FL 32068 $199,990 2,681 sq. ft. 6,098 sq. ft. $75
2015-08-21 Single Family Ranch 2816 Tuscarora Trl Middleburg, FL 32068 $157,000 1,805 sq. ft. $87
2015-08-21 Single Family Traditional 2061 Frogmore Dr Middleburg, FL 32068 $159,000 1,574 sq. ft. 4,792 sq. ft. $101
2015-08-21 Single Family Traditional 2892 Tuscarora Middleburg, FL 32068 $145,000 1,475 sq. ft. $98
2015-08-21 Single Family 3884 Hollywood Rd Middleburg, FL 32068 $115,000 1,772 sq. ft. $65
2015-08-20 Single Family Ranch 3240 Dipping Vat Rd Middleburg, FL 32068 $160,000 1,698 sq. ft. $94
2015-08-20 Single Family 3643 Braeden Middleburg, FL 32068 $154,900 1,865 sq. ft. $83
2015-08-20 Single Family Ranch 5697 Carter Spencer Rd Middleburg, FL 32068 $129,900 2,280 sq. ft. 109,336 sq. ft. $57
2015-08-20 Single Family Ranch 4821 Dandelion St Middleburg, FL 32068 $69,900 2,052 sq. ft. $34
2015-08-20 Single Family Ranch 2325 Mayapple Ct Middleburg, FL 32068 $99,900 1,976 sq. ft. $51
2015-08-20 Single Family Ranch 4895 Mayflower St Middleburg, FL 32068 $99,900 1,320 sq. ft. 52,708 sq. ft. $76
2015-08-19 Single Family Townhouse 3150 Ravines Rd Middleburg, FL 32068 $189,900 2,170 sq. ft. $88
2015-08-19 Single Family Ranch 1718 Dartmouth Dr Middleburg, FL 32068 $142,000 1,470 sq. ft. $97
2015-08-19 Single Family Townhouse 1841 Lago Del Sur Dr Middleburg, FL 32068 $82,000 1,264 sq. ft. $65
2015-08-18 Single Family 3118 Steeple Pine Ct Middleburg, FL 32068 $224,990 2,003 sq. ft. 5,663 sq. ft. $112
2015-08-18 Single Family Ranch 63 Azalea Ave Middleburg, FL 32068 $199,500 2,475 sq. ft. $81
2015-08-18 Single Family Traditional 2488 Ambrosia Dr Middleburg, FL 32068 $148,900 1,725 sq. ft. 8,712 sq. ft. $86
2015-08-17 Single Family Ranch; Traditional 5483 Knob Hill Middleburg, FL 32068 $110,000 1,134 sq. ft. $97
2015-08-16 Single Family Ranch 1770 Dartmouth Dr Middleburg, FL 32068 $154,900 1,678 sq. ft. $92
2015-08-15 Single Family Ranch 1067 Wetland Ridge Cir Middleburg, FL 32068 $257,950 2,680 sq. ft. $96
2015-08-15 Single Family Traditional 1309 Setter Ct Middleburg, FL 32068 $115,000 1,496 sq. ft. $77
2015-08-15 Single Family 4321 Falcon Run Ln Middleburg, FL 32068 $135,000 1,216 sq. ft. $111
2015-08-15 Single Family Ranch 2081 Manucy Ct Middleburg, FL 32068 $64,900 1,299 sq. ft. $50
2015-08-14 Single Family Traditional 2262 Felucca Dr Middleburg, FL 32068 $125,000 1,361 sq. ft. $92
2015-08-14 Single Family Traditional 2323 Bencrest Ter Middleburg, FL 32068 $179,900 1,649 sq. ft. $109
2015-08-13 Single Family Tudor 1421 Coopers Hawk Way Middleburg, FL 32068 $349,900 3,286 sq. ft. $106
2015-08-13 Single Family Contemporary 3126 Steeple Pine Ct Middleburg, FL 32068 $224,990 2,003 sq. ft. 5,663 sq. ft. $112
2015-08-13 Single Family Traditional 1916 High Prairie Ln Middleburg, FL 32068 $189,990 1,540 sq. ft. $123
2015-08-13 Single Family Traditional 3285 Carlotta Rd Middleburg, FL 32068 $184,900 2,224 sq. ft. $83
2015-08-13 Single Family Traditional 1908 High Prairie Ln Middleburg, FL 32068 $200,000 1,701 sq. ft. $118
2015-08-13 Single Family 5463 Big Branch Rd Middleburg, FL 32068 $54,900 2,130 sq. ft. 50,965 sq. ft. $26
2015-08-12 Single Family Traditional 4052 Half Moon Cir Middleburg, FL 32068 $143,600 2,129 sq. ft. $67
2015-08-11 Single Family Contemporary; Ranch 3710 Bittersweet Ct Middleburg, FL 32068 $250,000 2,100 sq. ft. $119
2015-08-11 Single Family Contemporary 4419 Sidewinder Trl Middleburg, FL 32068 $269,900 2,486 sq. ft. $109
2015-08-09 Single Family 2510 Crestdale Ct Middleburg, FL 32068 $199,990 2,392 sq. ft. $84
2015-08-09 Single Family Traditional 9 Bluegrass Ave Middleburg, FL 32068 $109,000 1,703 sq. ft. $64
2015-08-08 Single Family Colonial; Ranch 1808 Moorings Circle Middleburg, FL 32068 $389,000 3,212 sq. ft. $121
2015-08-08 Single Family Contemporary 2368 Sophie Pl Middleburg, FL 32068 $188,800 2,170 sq. ft. $87
2015-08-07 Single Family 4620 Pine Lake Dr Middleburg, FL 32068 $184,900 1,710 sq. ft. $108
2015-08-07 Single Family Traditional 3972 Great Falls Loop Middleburg, FL 32068 $200,000 1,701 sq. ft. $118
2015-08-07 Single Family 5145 Buckhead Middleburg, FL 32068 $54,875 1,465 sq. ft. $37
2015-08-07 Single Family 1688 Nolan Middleburg, FL 32068 $77,950 1,500 sq. ft. $52
2015-08-07 Single Family 2715 Scully Rd Middleburg, FL 32068 $40,000 960 sq. ft. 43,560 sq. ft. $42
2015-08-06 Single Family 1049 Wetland Ridge Cir Middleburg, FL 32068 $314,950 3,400 sq. ft. $93
2015-08-06 Single Family 350 Foxtail Ave Middleburg, FL 32068 $325,000 1,216 sq. ft. $267
2015-08-05 Single Family Traditional 2376 Masters Rd Middleburg, FL 32068 $74,900 1,568 sq. ft. $48
2015-08-05 Single Family 4560 Saddlehorn Trl Middleburg, FL 32068 $419,900 3,038 sq. ft. $138
2015-08-05 Single Family 3450 Steelgate Ct Middleburg, FL 32068 $215,000 2,828 sq. ft. $76
2015-08-05 Single Family Ranch 3103 Longleaf Ranch Cir Middleburg, FL 32068 $214,900 2,280 sq. ft. 22,216 sq. ft. $94
2015-08-04 Single Family 1227 Orchard Oriole Pl Middleburg, FL 32068 $359,900 3,216 sq. ft. $112
2015-08-04 Single Family 4060 Blackbird Ln Middleburg, FL 32068 $225,900 2,060 sq. ft. $110
2015-08-04 Single Family Townhouse 3073 Zeyno Dr Middleburg, FL 32068 $124,900 1,550 sq. ft. $81
2015-08-03 Single Family 1984 Pepperhill Ct Middleburg, FL 32068 $29,900 1,560 sq. ft. 51,401 sq. ft. $19
2015-08-02 Single Family Traditional 1771 Landward Ln Middleburg, FL 32068 $598,000 2,843 sq. ft. 83,635 sq. ft. $210
2015-08-02 Single Family Traditional 1789 Foggy Day Dr Middleburg, FL 32068 $235,500 2,655 sq. ft. $89
2015-08-01 Single Family 106 Panda Ave Middleburg, FL 32068 $489,000 4,143 sq. ft. $118
2015-08-01 Single Family 3342 New Beginnings Ln Middleburg, FL 32068 $234,995 2,499 sq. ft. $94
2015-08-01 Single Family Traditional 1619 Night Owl Trl Middleburg, FL 32068 $180,000 2,108 sq. ft. $85
2015-08-01 Single Family Traditional 2648 Ravine Hill Dr Middleburg, FL 32068 $189,900 1,935 sq. ft. $98
2015-08-01 Single Family 2160 Wharf St Middleburg, FL 32068 $135,500 2,919 sq. ft. $46
2015-08-01 Single Family Traditional 4895 Peppergrass St Middleburg, FL 32068 $47,500 1,216 sq. ft. 49,658 sq. ft. $39
2015-07-30 Single Family 1150 Silver Spur Ct Middleburg, FL 32068 $229,900 2,183 sq. ft. 60,984 sq. ft. $105
2015-07-30 Single Family Ranch 4312 Song Sparrow Dr Middleburg, FL 32068 $269,900 2,513 sq. ft. $107
2015-07-30 Single Family Traditional 4447 Oak Moss Loop Middleburg, FL 32068 $172,000 1,901 sq. ft. 10,019 sq. ft. $90
2015-07-30 Single Family 1595 Acanthus Mnr Middleburg, FL 32068 $68,700 1,364 sq. ft. $50
2015-07-29 Single Family Traditional 2737 Anchor Rd Middleburg, FL 32068 $137,300 1,921 sq. ft. $71
2015-07-29 Single Family Traditional 1879 Alberta Ct Middleburg, FL 32068 $84,400 1,072 sq. ft. $79
2015-07-29 Single Family 4671 Calendula Middleburg, FL 32068 $34,999 1,352 sq. ft. $26
2015-07-28 Single Family Single Family Home 1879 Alberta Court Middleburg, FL 32068 $84,400 1,421 sq. ft. 4,792 sq. ft. $59
2015-07-28 Single Family Traditional 2047 Knottingham Pl Middleburg, FL 32068 $74,000 1,976 sq. ft. $37
2015-07-26 Single Family Ranch 3509 Rustlewood Ct Middleburg, FL 32068 $257,900 2,634 sq. ft. $98
2015-07-26 Single Family 1774 Dartmouth Dr Middleburg, FL 32068 $145,500 1,710 sq. ft. $85
2015-07-25 Single Family Traditional 3122 Nautilus Rd Middleburg, FL 32068 $849,000 3,792 sq. ft. $224
2015-07-25 Single Family Traditional 1267 Limpkin Ln Middleburg, FL 32068 $339,900 2,718 sq. ft. $125
2015-07-25 Single Family Traditional 1994 Gentlebreeze Rd Middleburg, FL 32068 $79,500 1,680 sq. ft. $47
2015-07-24 Single Family Loft; Traditional 716 Sunny Stroll Dr Middleburg, FL 32068 $240,000 2,715 sq. ft. $88
2015-07-24 Single Family Traditional 2384 Meadowlark Ct Middleburg, FL 32068 $98,900 924 sq. ft. $107
2015-07-22 Single Family Middleburg, FL 32068 $88,000 1,456 sq. ft. $60
2015-07-21 Single Family 3881 Trail Ridge Rd Middleburg, FL 32068 $269,900 2,505 sq. ft. $108
2015-07-21 Single Family Traditional; Tri-Level 4099 Hall Boree Rd Middleburg, FL 32068 $338,250 3,918 sq. ft. 141,134 sq. ft. $86
2015-07-21 Single Family Contemporary; Traditional 3508 Rustlewood Ct Middleburg, FL 32068 $315,000 3,802 sq. ft. $83
2015-07-19 Single Family 4732 Saddlehorn Trl Middleburg, FL 32068 $450,000 3,660 sq. ft. $123
2015-07-19 Single Family 2272 Hibiscus Ave Middleburg, FL 32068 $79,900 2,029 sq. ft. 49,658 sq. ft. $39
2015-07-18 Single Family Ranch 1865 Penzance Pkwy Middleburg, FL 32068 $161,000 1,874 sq. ft. $86
2015-07-18 Single Family Traditional 117 Melanie Ln Middleburg, FL 32068 $340,000 3,984 sq. ft. 217,800 sq. ft. $85
2015-07-18 Single Family 3791 Iceni Ct Middleburg, FL 32068 $145,000 1,801 sq. ft. $81
2015-07-18 Single Family Ranch 2718 Pinewood Blvd Middleburg, FL 32068 $65,600 1,096 sq. ft. 11,326 sq. ft. $60
2015-07-17 Single Family Ranch 1491 Brangus Rd Middleburg, FL 32068 $149,900 1,716 sq. ft. $87
2015-07-16 Single Family 1084 Merlin Point Middleburg, FL 32068 $389,900 4,108 sq. ft. $95
2015-07-16 Single Family 4499 Song Sparrow Dr Middleburg, FL 32068 $225,900 2,317 sq. ft. $97
2015-07-16 Single Family 4503 Song Sparrow Dr Middleburg, FL 32068 $259,900 2,784 sq. ft. $93
2015-07-16 Single Family 4607 Pine Lake Dr Middleburg, FL 32068 $260,990 2,552 sq. ft. $102
2015-07-15 Single Family Colonial; Traditional 1824 Lakedge Dr Middleburg, FL 32068 $214,500 2,600 sq. ft. $82
2015-07-15 Single Family Traditional 1856 High Prairie Ln Middleburg, FL 32068 $269,990 2,566 sq. ft. $105
2015-07-15 Single Family Contemporary; Ranch 1990 Tickford St Middleburg, FL 32068 $134,900 1,632 sq. ft. $83
2015-07-15 Single Family 3994 Trail Ridge Rd Middleburg, FL 32068 $134,000 1,563 sq. ft. $86
2015-07-13 Single Family Traditional 3318 Aspen Forest Dr Middleburg, FL 32068 $179,900 2,092 sq. ft. $86
2015-07-12 Single Family Ranch 2874 Witch Hazel Middleburg, FL 32068 $242,000 1,907 sq. ft. $127
2015-07-11 Single Family Contemporary 1529 Ashleigh St Middleburg, FL 32068 $148,000 1,642 sq. ft. $90
2015-07-10 Single Family Traditional 3337 New Beginnings Ln Middleburg, FL 32068 $275,000 3,061 sq. ft. $90
2015-07-09 Single Family Ranch 4890 County Road 218 Middleburg, FL 32068 $115,100 1,904 sq. ft. $60
2015-07-07 Single Family 5207 Carter Spencer Rd Middleburg, FL 32068 $139,900 1,610 sq. ft. $87
2015-07-07 Single Family Ranch 2573 Hollyhock Ave Middleburg, FL 32068 $54,900 1,440 sq. ft. 43,560 sq. ft. $38
2015-07-05 Single Family Ranch; Traditional 1738 Dartmouth Dr Middleburg, FL 32068 $159,900 1,722 sq. ft. $93
2015-07-04 Single Family Bermuda; Bungalow 4023 Lazy Acres Rd Middleburg, FL 32068 $274,900 2,083 sq. ft. 217,800 sq. ft. $132
2015-07-04 Single Family 3833 Sand Dollar Rd Middleburg, FL 32068 $215,000 2,905 sq. ft. $74
2015-07-04 Single Family Bungalow 4166 Scenic Dr Middleburg, FL 32068 $97,500 484 sq. ft. $201
2015-07-03 Single Family 1470 Long Horn Rd Middleburg, FL 32068 $39,900 2,356 sq. ft. $17
2015-07-02 Single Family Traditional 3665 Meadowgreen Ln Middleburg, FL 32068 $284,000 3,575 sq. ft. $79
2015-07-02 Single Family Ranch; Spanish 1220 Foxmeadow Trl Middleburg, FL 32068 $187,500 1,984 sq. ft. 50,094 sq. ft. $95
2015-07-01 Single Family 4121 Sidewinder Trl Middleburg, FL 32068 $239,888 2,779 sq. ft. 147,668 sq. ft. $86
2015-07-01 Single Family 1138 Wetland Ridge Cir Middleburg, FL 32068 $279,950 2,900 sq. ft. $97
2015-06-29 Single Family Traditional 2567 Spring Meadows Dr Middleburg, FL 32068 $185,000 1,829 sq. ft. $101
2015-06-28 Single Family Ranch 2303 Indigo Ave Middleburg, FL 32068 $89,900 1,705 sq. ft. $53
2015-06-28 Single Family 2536 Angelica Av Ave Middleburg, FL 32068 $89,900 1,674 sq. ft. 50,530 sq. ft. $54
2015-06-27 Single Family Ranch 2873 Eagle Point Rd Middleburg, FL 32068 $264,900 2,060 sq. ft. 108,900 sq. ft. $129
2015-06-27 Single Family Traditional 1923 Leap Frog Ln Middleburg, FL 32068 $221,000 2,485 sq. ft. $89
2015-06-26 Single Family 615 Sunny Stroll Dr Middleburg, FL 32068 $154,900 1,800 sq. ft. $86
2015-06-26 Single Family 3919 Lake Crest Ter Middleburg, FL 32068 $179,900 2,404 sq. ft. $75
2015-06-26 Single Family Ranch 4494 Junction Dr Middleburg, FL 32068 $95,950 2,006 sq. ft. $48
2015-06-25 Single Family Contemporary 3791 Forest Dr Middleburg, FL 32068 $320,000 1,616 sq. ft. $198
2015-06-25 Single Family Contemporary 2563 Crooked Creek Middleburg, FL 32068 $290,000 3,230 sq. ft. $90
2015-06-25 Single Family Traditional 3150 Twilight Ct Middleburg, FL 32068 $216,000 2,203 sq. ft. $98
2015-06-24 Single Family Ranch; Traditional 1211 Hatcher Middleburg, FL 32068 $330,000 2,556 sq. ft. 216,929 sq. ft. $129
2015-06-23 Single Family Traditional 2072 Falcon Run Ln Middleburg, FL 32068 $235,000 1,600 sq. ft. 43,560 sq. ft. $147
2015-06-23 Single Family Traditional 2739 Archer St Middleburg, FL 32068 $175,000 2,714 sq. ft. $64
2015-06-22 Single Family 4472 Oak Moss Loop Middleburg, FL 32068 $299,000 3,535 sq. ft. $85
2015-06-20 Single Family 4804 Dandelion St Middleburg, FL 32068 $89,900 1,880 sq. ft. $48
2015-06-19 Single Family 2874 Creek St Middleburg, FL 32068 $44,900 1,426 sq. ft. $31
2015-06-17 Single Family Ranch; Traditional 4658 Javeline St Middleburg, FL 32068 $170,000 1,704 sq. ft. $100
2015-06-17 Single Family Traditional 1200 Whipstick Trl Middleburg, FL 32068 $239,900 2,046 sq. ft. 44,867 sq. ft. $117
2015-06-16 Single Family Traditional 2535 Moon Harbor Way Middleburg, FL 32068 $175,000 2,704 sq. ft. $65
2015-06-16 Single Family 2489 Snapdragon Ave Middleburg, FL 32068 $39,900 1,288 sq. ft. 49,658 sq. ft. $31
2015-06-13 Single Family Ranch 743 Sunny Stroll Dr Middleburg, FL 32068 $210,000 2,404 sq. ft. $87
2015-06-13 Single Family Ranch 2025 Blueberry Bay Ct Middleburg, FL 32068 $68,500 1,719 sq. ft. $40
2015-06-12 Single Family Traditional 2317 Oak Point Ter Middleburg, FL 32068 $199,900 2,214 sq. ft. $90
2015-06-11 Single Family Contemporary 1936 Moorings Cir Middleburg, FL 32068 $365,000 2,892 sq. ft. $126
2015-06-10 Single Family Contemporary 4097 Everett Ave Middleburg, FL 32068 $218,000 2,359 sq. ft. $92
2015-06-09 Single Family Traditional 4468 Oak Moss Loop Middleburg, FL 32068 $174,900 1,873 sq. ft. $93
2015-06-09 Single Family 3124 Longleaf Ranch Cir Middleburg, FL 32068 $209,900 2,207 sq. ft. $95
2015-06-09 Single Family 2479 Quarterhorse Middleburg, FL 32068 $190,000 1,953 sq. ft. $97
2015-06-08 Single Family Ranch 4380 Banks Rd Middleburg, FL 32068 $349,900 2,852 sq. ft. $123
2015-06-06 Single Family Ranch 3603 Whisper Creek Blvd Middleburg, FL 32068 $158,100 2,303 sq. ft. $69
2015-06-06 Single Family Traditional 1877 High Prairie Ln Middleburg, FL 32068 $297,990 3,402 sq. ft. $88
2015-06-06 Single Family Ranch 2276 Maluke Ln Middleburg, FL 32068 $57,500 2,040 sq. ft. 67,518 sq. ft. $28
2015-06-05 Single Family 4770 Peppergrass St Middleburg, FL 32068 $124,900 1,976 sq. ft. 46,174 sq. ft. $63
2015-06-05 Single Family Ranch 1688 Sandy Hollow Loop Middleburg, FL 32068 $115,000 1,300 sq. ft. $88
2015-06-04 Single Family 1207 Karen Dr Middleburg, FL 32068 $99,900 2,052 sq. ft. 94,525 sq. ft. $49
2015-06-03 Single Family 1708 Hereford Rd Middleburg, FL 32068 $47,500 1,152 sq. ft. $41
2015-06-03 Single Family Traditional 2915 Ravine Hill Dr Middleburg, FL 32068 $249,900 2,336 sq. ft. $107
2015-06-02 Single Family 4380 Hawk Haven Rd Middleburg, FL 32068 $419,000 1,890 sq. ft. 453,024 sq. ft. $222
2015-06-02 Single Family Stilt House 4144 Scenic Dr Middleburg, FL 32068 $187,000 1,120 sq. ft. $167
2015-06-02 Single Family Ranch 2111 Orangewood St Middleburg, FL 32068 $136,000 1,568 sq. ft. $87
2015-06-01 Single Family Contemporary 3411 Cutting Ct Middleburg, FL 32068 $129,499 1,457 sq. ft. $89
2015-06-01 Single Family 4166 Osceola Trl Middleburg, FL 32068 $63,000 1,620 sq. ft. 62,291 sq. ft. $39
2015-05-30 Single Family 3048 Longleaf Ranch Cir Middleburg, FL 32068 $199,000 2,467 sq. ft. $81
2015-05-30 Single Family 1999 Gentle Breeze Rd Middleburg, FL 32068 $87,900 1,984 sq. ft. 44,431 sq. ft. $44
2015-05-30 Single Family Ranch Middleburg, FL 32068 $69,900 1,066 sq. ft. $66
2015-05-28 Single Family Ranch 4391 Song Sparrow Dr Middleburg, FL 32068 $289,900 2,788 sq. ft. $104
2015-05-28 Single Family 2680 Periwinkle Ave Middleburg, FL 32068 $149,900 1,583 sq. ft. $95
2015-05-27 Single Family Contemporary 1981 Moorings Cir Middleburg, FL 32068 $379,900 2,904 sq. ft. 12,632 sq. ft. $131
2015-05-27 Single Family 56 Mimosa Ave Middleburg, FL 32068 $214,900 2,400 sq. ft. 104,544 sq. ft. $90
2015-05-27 Single Family 3120 Longleaf Ranch Cir Middleburg, FL 32068 $249,900 2,076 sq. ft. $120
2015-05-27 Single Family Ranch 4523 Oak Moss Loop Middleburg, FL 32068 $167,900 1,719 sq. ft. $98
2015-05-20 Single Family 2990 Black Creek Dr Middleburg, FL 32068 $219,000 1,810 sq. ft. 57,935 sq. ft. $121
2015-05-20 Single Family Traditional 4122 Great Falls Loop Middleburg, FL 32068 $207,585 2,170 sq. ft. $96
2015-05-20 Single Family Traditional 3989 Lake Crest Ter Middleburg, FL 32068 $195,000 2,190 sq. ft. $89
2015-05-20 Single Family Traditional 4130 Great Falls Loop Middleburg, FL 32068 $183,110 1,714 sq. ft. $107
2015-05-20 Single Family Traditional 4118 Great Falls Loop Middleburg, FL 32068 $192,085 1,862 sq. ft. $103
2015-05-20 Single Family Traditional 4126 Great Falls Loop Middleburg, FL 32068 $193,085 1,862 sq. ft. $104
2015-05-19 Single Family Traditional 4114 Great Falls Loop Middleburg, FL 32068 $214,585 2,298 sq. ft. $93
2015-05-19 Single Family Traditional 1900 High Prairie Ln Middleburg, FL 32068 $232,990 2,042 sq. ft. $114
2015-05-17 Single Family Ranch 1451 Coopers Hawk Way Middleburg, FL 32068 $360,900 3,197 sq. ft. $113
2015-05-16 Single Family Traditional 1889 High Prairie Ln Middleburg, FL 32068 $209,990 1,798 sq. ft. $117
2015-05-16 Single Family 3301 Wilderness Cir Middleburg, FL 32068 $129,900 2,082 sq. ft. $62
2015-05-16 Single Family 1967 Crestview Ct Middleburg, FL 32068 $57,900 1,912 sq. ft. $30
2015-05-15 Single Family 4528 Santa Clara Ave Middleburg, FL 32068 $121,000 1,316 sq. ft. $92
2015-05-14 Single Family Ranch 1080 Foxmeadow Trl Middleburg, FL 32068 $270,000 1,841 sq. ft. 87,120 sq. ft. $147
2015-05-14 Single Family Ranch 12 Coriander Ter Middleburg, FL 32068 $107,900 49,658 sq. ft.
2015-05-13 Single Family Stilt House 4088 Scenic Middleburg, FL 32068 $259,900 1,472 sq. ft. $177
2015-05-13 Single Family 3497 Whisper Creek Blvd Middleburg, FL 32068 $205,000 2,262 sq. ft. $91
2015-05-13 Single Family Traditional 1896 High Prairie Ln Middleburg, FL 32068 $209,990 1,913 sq. ft. $110
2015-05-13 Single Family Traditional 1909 High Prairie Ln Middleburg, FL 32068 $212,990 1,913 sq. ft. $111
2015-05-13 Single Family Traditional 1892 High Prairie Ln Middleburg, FL 32068 $232,990 2,042 sq. ft. $114
2015-05-13 Single Family 1607 Twin Oak Dr Middleburg, FL 32068 $114,500 1,290 sq. ft. $89
2015-05-12 Single Family Ranch 4215 Southern Magnolia Ln Middleburg, FL 32068 $221,500 2,320 sq. ft. $95
2015-05-10 Single Family Ranch 3407 Wilderness Cir Middleburg, FL 32068 $149,900 1,830 sq. ft. $82
2015-05-09 Single Family Ranch 2433 Oleander Ave Middleburg, FL 32068 $149,999 1,806 sq. ft. $83
2015-05-09 Single Family Ranch 2459 Aloha Ln Middleburg, FL 32068 $137,500 1,330 sq. ft. $103
2015-05-07 Single Family Traditional 4097 Great Falls Loop Middleburg, FL 32068 $210,110 2,298 sq. ft. $91
2015-05-07 Single Family Traditional 4105 Great Falls Loop Middleburg, FL 32068 $190,085 1,862 sq. ft. $102
2015-05-06 Single Family 1350 Camp Ridge Ln Middleburg, FL 32068 $167,000 1,843 sq. ft. $91
2015-05-02 Single Family 2328 Halperns Middleburg, FL 32068 $214,800 2,063 sq. ft. 69,260 sq. ft. $104
2015-05-01 Single Family Ranch 2450 Sandy Run Dr Middleburg, FL 32068 $274,900 1,843 sq. ft. $149
2015-04-29 Single Family Ranch 2731 Forman Cir Middleburg, FL 32068 $13,900 892 sq. ft. $16
2015-04-27 Single Family Traditional 2863 Longleaf Ranch Cir Middleburg, FL 32068 $234,900 2,427 sq. ft. $97
2015-04-24 Single Family 1305 Warbler Way Middleburg, FL 32068 $369,900 3,121 sq. ft. $119
2015-04-21 Single Family Contemporary 3134 Steeple Pine Ct Middleburg, FL 32068 $235,990 2,003 sq. ft. 5,663 sq. ft. $118
2015-04-21 Single Family Ranch 4518 Song Sparrow Dr Middleburg, FL 32068 $174,900 1,764 sq. ft. $99
2015-04-20 Single Family Traditional 4142 Scenic Dr Middleburg, FL 32068 $225,000 2,136 sq. ft. $105
2015-04-18 Single Family Ranch 2565 Hibiscus Ave Middleburg, FL 32068 $119,000 1,352 sq. ft. $88
2015-04-18 Single Family Ranch 4024 Amanda Ln Middleburg, FL 32068 $64,500 1,216 sq. ft. $53
2015-04-16 Single Family Ranch 4116 Mustang Rd Middleburg, FL 32068 $1,600,000 2,174 sq. ft. 317,988 sq. ft. $736
2015-04-16 Single Family 1415 Blue Jay Dr Middleburg, FL 32068 $58,000 1,837 sq. ft. 43,996 sq. ft. $32
2015-04-15 Single Family Ranch 4223 Southern Magnolia Ln Middleburg, FL 32068 $178,900 1,512 sq. ft. $118
2015-04-15 Single Family Ranch 4615 Burdock Middleburg, FL 32068 $95,900 1,176 sq. ft. $82
2015-04-15 Single Family Ranch 4010 Inglewood Rd Middleburg, FL 32068 $130,000 1,620 sq. ft. $80
2015-04-11 Single Family Contemporary 3950 Equestrian Ct Middleburg, FL 32068 $399,900 3,167 sq. ft. $126
2015-04-10 Single Family Traditional 4413 Song Sparrow Middleburg, FL 32068 $234,990 2,667 sq. ft. $88
2015-04-09 Single Family Traditional 2329 Bur Oak Pl Middleburg, FL 32068 $174,900 1,707 sq. ft. $102
2015-04-03 Single Family 1283 Highfield Middleburg, FL 32068 $212,000 2,349 sq. ft. $90
2015-04-03 Single Family Ranch 223 Brickyard Rd Middleburg, FL 32068 $199,900 2,120 sq. ft. $94
2015-04-01 Single Family Ranch 3719 Alcove Dr Middleburg, FL 32068 $154,900 1,651 sq. ft. $94
2015-03-29 Single Family Tudor 1310 Lucky Ln Middleburg, FL 32068 $1,199,750 7,379 sq. ft. $163
2015-03-29 Single Family Ranch 4168 Dowling Rd Middleburg, FL 32068 $549,700 4,294 sq. ft. $128
2015-03-28 Single Family Traditional 3923 Equestrian Middleburg, FL 32068 $499,500 3,422 sq. ft. $146
2015-03-22 Single Family 4662 Pine Lake Dr Middleburg, FL 32068 $219,900 2,606 sq. ft. $84
2015-03-21 Single Family Ranch 1873 Moorings Cir Middleburg, FL 32068 $799,700 3,500 sq. ft. 32,234 sq. ft. $228
2015-03-18 Single Family Traditional 1863 High Prairie Ln Middleburg, FL 32068 $253,990 2,368 sq. ft. $107
2015-03-18 Single Family Traditional 1881 High Prairie Ln Middleburg, FL 32068 $254,990 2,368 sq. ft. $108
2015-03-18 Single Family Traditional 1867 High Prairie Ln Middleburg, FL 32068 $213,990 1,847 sq. ft. $116
2015-03-15 Single Family Ranch 3115 Longleaf Ranch Cir Middleburg, FL 32068 $219,900 2,312 sq. ft. $95
2015-03-15 Single Family Traditional 4839 Gopher Cir Middleburg, FL 32068 $180,000 1,750 sq. ft. $103
2015-03-14 Single Family Contemporary 4320 Song Sparrow Dr Middleburg, FL 32068 $275,000 3,315 sq. ft. $83
2015-03-14 Single Family Ranch 4061 Appaloosa Rd Middleburg, FL 32068 $199,000 1,798 sq. ft. 146,362 sq. ft. $111
2015-02-20 Single Family Traditional 3505 Steelgate Ct Middleburg, FL 32068 $169,900 1,868 sq. ft. $91
2015-02-17 Single Family 2071 Falcon Run Ln Middleburg, FL 32068 $139,900 1,896 sq. ft. 270,072 sq. ft. $74
2015-02-02 Single Family Contemporary 1063 Cactus Cut Rd Middleburg, FL 32068 $385,000 3,121 sq. ft. 43,996 sq. ft. $123
2015-01-27 Single Family 1119 Buggy Whip Trl Middleburg, FL 32068 $315,000 2,164 sq. ft. $146
2015-01-27 Single Family Stilt House 128 Lee Dr Middleburg, FL 32068 $198,000 2,285 sq. ft. $87
2015-01-22 Single Family Traditional 2989 Sparkleberry Dr Middleburg, FL 32068 $225,000 3,037 sq. ft. $74
2015-01-21 Single Family Traditional 2418 Violet Way Middleburg, FL 32068 $375,000 4,310 sq. ft. 70,132 sq. ft. $87
2015-01-21 Single Family Loft; Traditional; Tri-Level 2866 Black Creek Middleburg, FL 32068 $500,000 2,592 sq. ft. 43,604 sq. ft. $193
2015-01-17 Single Family Spanish; Traditional 2347 Halperns Way Middleburg, FL 32068 $540,000 2,944 sq. ft. $183
2015-01-15 Single Family Traditional 2656 Halperns Way Middleburg, FL 32068 $165,000 2,777 sq. ft. $59
2015-01-04 Single Family Ranch 5243 Chicory Cir Middleburg, FL 32068 $129,900 1,048 sq. ft. 53,143 sq. ft. $124
2014-12-31 Single Family Traditional 1427 Coopers Hawk Way Middleburg, FL 32068 $359,999 3,434 sq. ft. $105
2014-12-31 Single Family 1951 Red Bug Aly Middleburg, FL 32068 $329,900 2,975 sq. ft. 13,939 sq. ft. $111
2014-12-28 Single Family Traditional 1652 Teaberry Dr Middleburg, FL 32068 $109,900 1,284 sq. ft. $86
2014-12-25 Single Family A Frame 1990 Red Bug Aly Middleburg, FL 32068 $165,000 1,987 sq. ft. $83
2014-12-18 Single Family 4908 Caraway St Middleburg, FL 32068 $144,900 2,280 sq. ft. $64
2014-12-13 Single Family Traditional 4106 Half Moon Cir Middleburg, FL 32068 $149,900 1,887 sq. ft. $79
2014-12-13 Single Family Ranch 4950 Peppergrass St Middleburg, FL 32068 $102,500 2,052 sq. ft. $50
2014-12-09 Single Family Contemporary; Townhouse 3125 Zeyno Dr Middleburg, FL 32068 $142,900 1,810 sq. ft. $79
2014-12-09 Single Family Traditional 4800 Peppergrass St Middleburg, FL 32068 $123,520 2,113 sq. ft. $58
2014-11-20 Single Family 1070 Wetland Ridge Cir Middleburg, FL 32068 $224,950 2,150 sq. ft. $105
2014-11-12 Single Family Traditional 2879 Ravines Rd Middleburg, FL 32068 $336,000 3,607 sq. ft. $93
2014-11-11 Single Family Traditional 2135 Pine Tree Ln Middleburg, FL 32068 $235,000 2,568 sq. ft. $92
2014-11-09 Single Family Ranch 3092 Longleaf Ranch Cir Middleburg, FL 32068 $272,200 3,000 sq. ft. $91
2014-11-09 Single Family Ranch 3079 Longleaf Ranch Cir Middleburg, FL 32068 $220,400 2,010 sq. ft. $110
2014-11-03 Single Family Contemporary 193 Teakwood Cir Middleburg, FL 32068 $108,950 1,424 sq. ft. $77
2014-10-04 Single Family 1071 Wetland Ridge Cir Middleburg, FL 32068 $241,950 2,600 sq. ft. $93
2014-10-02 Single Family 1779 Big Branch Rd Middleburg, FL 32068 $79,900 1,620 sq. ft. 44,997 sq. ft. $49
2014-10-02 Single Family Ranch 5602 Maverick Rd Middleburg, FL 32068 $63,000 1,984 sq. ft. 43,560 sq. ft. $32
2014-10-01 Single Family 5239 Chicory Cir Middleburg, FL 32068 $59,900 1,248 sq. ft. 60,984 sq. ft. $48
2014-09-25 Single Family Traditional 93 Horsetail Ave Middleburg, FL 32068 $105,000 1,512 sq. ft. $69
2014-09-17 Single Family 2754 Cr-220 Middleburg, FL 32068 $1,200,000 2,966 sq. ft. $405
2014-08-20 Single Family 2409 Hibiscus Ave Middleburg, FL 32068 $60,000 1,120 sq. ft. $54
2014-08-14 Single Family 1857 Tillis Ln Middleburg, FL 32068 $107,900 1,200 sq. ft. 190,357 sq. ft. $90
2014-07-29 Single Family Traditional 2066 Cornell Rd Middleburg, FL 32068 $329,999 2,296 sq. ft. $144
2014-07-06 Single Family 9 Foxtail Ave Middleburg, FL 32068 $68,100 1,568 sq. ft. 52,141 sq. ft. $43
2014-07-04 Single Family Ranch 4026 Clifford Ln Middleburg, FL 32068 $72,500 1,064 sq. ft. 60,984 sq. ft. $68
2014-06-30 Single Family 1262 Limpkin Ln Middleburg, FL 32068 $379,900 3,464 sq. ft. $110
2014-04-25 Single Family Ranch 3996 Scenic Dr Middleburg, FL 32068 $479,000 3,012 sq. ft. $159
2014-03-25 Single Family Traditional 1111 Pine Island Ct Middleburg, FL 32068 $205,000 2,534 sq. ft. $81
2014-02-18 Single Family 1399 King Rail Ln Middleburg, FL 32068 $279,900 3,049 sq. ft. $92
2013-11-19 Single Family 1783 Nolan Rd Middleburg, FL 32068 $215,000 2,798 sq. ft. 827,640 sq. ft. $77